createdAt,value
2022-09-23T00:00:06.312Z,10.37
2022-09-23T00:01:06.373Z,10.33
2022-09-23T00:02:06.365Z,10.33
2022-09-23T00:03:06.598Z,10.33
2022-09-23T00:04:06.270Z,10.30
2022-09-23T00:05:06.271Z,10.25
2022-09-23T00:06:06.266Z,10.21
2022-09-23T00:07:06.243Z,10.17
2022-09-23T00:08:06.243Z,10.10
2022-09-23T00:09:06.333Z,10.07
2022-09-23T00:10:06.506Z,10.00
2022-09-23T00:11:06.208Z,9.96
2022-09-23T00:12:09.049Z,9.89
2022-09-23T00:13:06.208Z,9.82
2022-09-23T00:14:06.163Z,9.79
2022-09-23T00:15:06.186Z,9.68
2022-09-23T00:16:06.170Z,9.66
2022-09-23T00:17:06.532Z,9.63
2022-09-23T00:18:06.129Z,9.56
2022-09-23T00:19:06.352Z,9.53
2022-09-23T00:20:06.097Z,9.48
2022-09-23T00:21:06.125Z,9.45
2022-09-23T00:22:06.113Z,9.42
2022-09-23T00:23:06.090Z,9.39
2022-09-23T00:24:06.528Z,9.34
2022-09-23T00:25:06.066Z,9.30
2022-09-23T00:26:06.050Z,9.28
2022-09-23T00:27:06.097Z,9.25
2022-09-23T00:28:06.013Z,9.21
2022-09-23T00:29:06.044Z,9.20
2022-09-23T00:30:05.996Z,9.15
2022-09-23T00:31:06.358Z,9.12
2022-09-23T00:32:06.000Z,9.10
2022-09-23T00:33:06.004Z,9.10
2022-09-23T00:34:05.951Z,9.06
2022-09-23T00:35:05.985Z,9.04
2022-09-23T00:36:05.935Z,9.04
2022-09-23T00:37:05.945Z,9.02
2022-09-23T00:38:06.191Z,9.02
2022-09-23T00:39:06.068Z,9.04
2022-09-23T00:40:06.003Z,9.01
2022-09-23T00:41:05.895Z,9.01
2022-09-23T00:42:05.867Z,8.99
2022-09-23T00:43:05.864Z,8.97
2022-09-23T00:44:05.850Z,8.99
2022-09-23T00:45:06.182Z,9.04
2022-09-23T00:46:05.869Z,9.04
2022-09-23T00:47:05.817Z,9.05
2022-09-23T00:48:05.824Z,9.04
2022-09-23T00:49:05.805Z,9.06
2022-09-23T00:50:05.781Z,9.15
2022-09-23T00:51:05.808Z,9.20
2022-09-23T00:52:06.046Z,9.27
2022-09-23T00:53:05.761Z,9.32
2022-09-23T00:54:05.823Z,9.39
2022-09-23T00:55:05.794Z,9.42
2022-09-23T00:56:05.722Z,9.46
2022-09-23T00:57:05.749Z,9.49
2022-09-23T00:58:05.704Z,9.50
2022-09-23T00:59:05.967Z,9.50
2022-09-23T01:00:05.679Z,9.53
2022-09-23T01:01:05.773Z,9.53
2022-09-23T01:02:05.709Z,9.53
2022-09-23T01:03:05.714Z,9.50
2022-09-23T01:04:05.635Z,9.52
2022-09-23T01:05:05.629Z,9.52
2022-09-23T01:06:05.899Z,9.53
2022-09-23T01:07:05.618Z,9.52
2022-09-23T01:08:05.600Z,9.56
2022-09-23T01:09:05.713Z,9.56
2022-09-23T01:10:05.574Z,9.57
2022-09-23T01:11:05.595Z,9.63
2022-09-23T01:12:05.573Z,9.63
2022-09-23T01:13:05.827Z,9.63
2022-09-23T01:14:05.536Z,9.64
2022-09-23T01:15:05.587Z,9.63
2022-09-23T01:16:05.515Z,9.64
2022-09-23T01:17:05.641Z,9.66
2022-09-23T01:18:05.521Z,9.63
2022-09-23T01:19:05.477Z,9.66
2022-09-23T01:20:05.765Z,9.66
2022-09-23T01:21:05.517Z,9.64
2022-09-23T01:22:05.447Z,9.64
2022-09-23T01:23:05.432Z,9.63
2022-09-23T01:24:05.532Z,9.66
2022-09-23T01:25:05.412Z,9.64
2022-09-23T01:26:05.409Z,9.63
2022-09-23T01:27:05.710Z,9.58
2022-09-23T01:28:05.388Z,9.58
2022-09-23T01:29:05.371Z,9.56
2022-09-23T01:30:05.369Z,9.52
2022-09-23T01:31:05.411Z,9.49
2022-09-23T01:32:05.355Z,9.46
2022-09-23T01:33:05.377Z,9.42
2022-09-23T01:34:05.604Z,9.35
2022-09-23T01:35:05.319Z,9.34
2022-09-23T01:36:05.304Z,9.34
2022-09-23T01:37:05.301Z,9.32
2022-09-23T01:38:05.303Z,9.34
2022-09-23T01:39:05.297Z,9.35
2022-09-23T01:40:05.364Z,9.35
2022-09-23T01:41:05.532Z,9.38
2022-09-23T01:42:05.241Z,9.39
2022-09-23T01:43:05.222Z,9.39
2022-09-23T01:44:05.241Z,9.40
2022-09-23T01:45:05.260Z,9.42
2022-09-23T01:46:05.198Z,9.42
2022-09-23T01:47:05.192Z,9.45
2022-09-23T01:48:05.535Z,9.43
2022-09-23T01:49:05.214Z,9.45
2022-09-23T01:50:05.157Z,9.43
2022-09-23T01:51:05.179Z,9.45
2022-09-23T01:52:05.136Z,9.43
2022-09-23T01:53:05.130Z,9.42
2022-09-23T01:54:05.124Z,9.42
2022-09-23T01:55:05.372Z,9.42
2022-09-23T01:56:05.095Z,9.40
2022-09-23T01:57:05.103Z,9.39
2022-09-23T01:58:05.070Z,9.39
2022-09-23T01:59:05.063Z,9.35
2022-09-23T02:00:05.045Z,9.38
2022-09-23T02:01:05.153Z,9.38
2022-09-23T02:02:05.392Z,9.34
2022-09-23T02:03:05.044Z,9.35
2022-09-23T02:04:05.054Z,9.35
2022-09-23T02:05:04.991Z,9.34
2022-09-23T02:06:04.984Z,9.35
2022-09-23T02:07:04.988Z,9.34
2022-09-23T02:08:04.968Z,9.34
2022-09-23T02:09:05.261Z,9.35
2022-09-23T02:10:04.954Z,9.38
2022-09-23T02:11:04.929Z,9.38
2022-09-23T02:12:04.927Z,9.38
2022-09-23T02:13:04.905Z,9.38
2022-09-23T02:14:04.904Z,9.35
2022-09-23T02:15:04.928Z,9.38
2022-09-23T02:16:05.168Z,9.35
2022-09-23T02:17:04.893Z,9.32
2022-09-23T02:18:04.874Z,9.32
2022-09-23T02:19:04.859Z,9.30
2022-09-23T02:20:04.870Z,9.31
2022-09-23T02:21:04.863Z,9.30
2022-09-23T02:22:04.821Z,9.28
2022-09-23T02:23:05.082Z,9.28
2022-09-23T02:24:04.806Z,9.25
2022-09-23T02:25:04.791Z,9.24
2022-09-23T02:26:04.779Z,9.23
2022-09-23T02:27:04.808Z,9.20
2022-09-23T02:28:04.757Z,9.18
2022-09-23T02:29:04.740Z,9.16
2022-09-23T02:30:05.027Z,9.13
2022-09-23T02:31:04.720Z,9.12
2022-09-23T02:32:04.752Z,9.09
2022-09-23T02:33:04.743Z,9.09
2022-09-23T02:34:04.699Z,9.06
2022-09-23T02:35:04.679Z,9.04
2022-09-23T02:36:04.678Z,9.04
2022-09-23T02:37:04.961Z,9.02
2022-09-23T02:38:04.661Z,8.99
2022-09-23T02:39:04.668Z,8.97
2022-09-23T02:40:04.695Z,8.97
2022-09-23T02:41:04.635Z,8.96
2022-09-23T02:42:04.612Z,8.97
2022-09-23T02:43:04.604Z,8.96
2022-09-23T02:44:04.883Z,8.94
2022-09-23T02:45:04.608Z,8.93
2022-09-23T02:46:04.672Z,8.91
2022-09-23T02:47:04.569Z,8.91
2022-09-23T02:48:04.553Z,8.88
2022-09-23T02:49:04.540Z,8.87
2022-09-23T02:50:04.555Z,8.86
2022-09-23T02:51:04.862Z,8.84
2022-09-23T02:52:04.540Z,8.83
2022-09-23T02:53:04.552Z,8.83
2022-09-23T02:54:04.487Z,8.79
2022-09-23T02:55:04.478Z,8.81
2022-09-23T02:56:04.473Z,8.78
2022-09-23T02:57:04.505Z,8.76
2022-09-23T02:58:04.733Z,8.76
2022-09-23T02:59:04.426Z,8.75
2022-09-23T03:00:04.426Z,8.75
2022-09-23T03:01:04.489Z,8.73
2022-09-23T03:02:04.545Z,8.73
2022-09-23T03:03:04.444Z,8.73
2022-09-23T03:04:04.386Z,8.73
2022-09-23T03:05:04.696Z,8.73
2022-09-23T03:06:04.361Z,8.73
2022-09-23T03:07:04.356Z,8.71
2022-09-23T03:08:04.343Z,8.72
2022-09-23T03:09:04.378Z,8.71
2022-09-23T03:10:04.332Z,8.72
2022-09-23T03:11:04.370Z,8.69
2022-09-23T03:12:04.592Z,8.68
2022-09-23T03:13:04.279Z,8.68
2022-09-23T03:14:04.288Z,8.68
2022-09-23T03:15:04.284Z,8.66
2022-09-23T03:16:04.307Z,8.66
2022-09-23T03:17:04.236Z,8.65
2022-09-23T03:18:04.243Z,8.66
2022-09-23T03:19:04.520Z,8.63
2022-09-23T03:20:04.219Z,8.62
2022-09-23T03:21:04.248Z,8.60
2022-09-23T03:22:04.216Z,8.60
2022-09-23T03:23:04.181Z,8.57
2022-09-23T03:24:04.166Z,8.57
2022-09-23T03:25:04.167Z,8.55
2022-09-23T03:26:04.450Z,8.55
2022-09-23T03:27:04.170Z,8.54
2022-09-23T03:28:04.132Z,8.53
2022-09-23T03:29:04.121Z,8.51
2022-09-23T03:30:04.117Z,8.51
2022-09-23T03:31:04.097Z,8.51
2022-09-23T03:32:04.216Z,8.50
2022-09-23T03:33:04.424Z,8.50
2022-09-23T03:34:04.068Z,8.50
2022-09-23T03:35:04.055Z,8.48
2022-09-23T03:36:04.048Z,8.48
2022-09-23T03:37:04.031Z,8.50
2022-09-23T03:38:04.034Z,8.48
2022-09-23T03:39:04.039Z,8.48
2022-09-23T03:40:04.342Z,8.48
2022-09-23T03:41:03.992Z,8.48
2022-09-23T03:42:03.983Z,8.48
2022-09-23T03:43:03.983Z,8.47
2022-09-23T03:44:03.965Z,8.45
2022-09-23T03:45:04.018Z,8.47
2022-09-23T03:46:03.977Z,8.45
2022-09-23T03:47:04.211Z,8.45
2022-09-23T03:48:03.979Z,8.44
2022-09-23T03:49:03.938Z,8.45
2022-09-23T03:50:03.898Z,8.44
2022-09-23T03:51:03.921Z,8.44
2022-09-23T03:52:03.890Z,8.42
2022-09-23T03:53:03.859Z,8.42
2022-09-23T03:54:03.879Z,8.42
2022-09-23T03:55:03.866Z,8.40
2022-09-23T03:56:03.866Z,8.40
2022-09-23T03:57:04.413Z,8.40
2022-09-23T03:58:03.827Z,8.40
2022-09-23T03:59:04.096Z,8.37
2022-09-23T04:00:03.812Z,8.37
2022-09-23T04:01:03.912Z,8.35
2022-09-23T04:02:03.882Z,8.35
2022-09-23T04:03:07.139Z,8.32
2022-09-23T04:04:03.784Z,8.32
2022-09-23T04:05:03.760Z,8.29
2022-09-23T04:06:03.747Z,8.28
2022-09-23T04:07:03.722Z,8.26
2022-09-23T04:08:03.741Z,8.26
2022-09-23T04:09:03.764Z,8.25
2022-09-23T04:10:03.702Z,8.21
2022-09-23T04:11:03.985Z,8.20
2022-09-23T04:12:03.698Z,8.18
2022-09-23T04:13:03.662Z,8.17
2022-09-23T04:14:03.660Z,8.15
2022-09-23T04:15:03.698Z,8.14
2022-09-23T04:16:03.689Z,8.12
2022-09-23T04:17:03.616Z,8.11
2022-09-23T04:18:03.905Z,8.10
2022-09-23T04:19:05.124Z,8.08
2022-09-23T04:20:03.596Z,8.07
2022-09-23T04:21:03.636Z,8.07
2022-09-23T04:22:03.573Z,8.04
2022-09-23T04:23:03.553Z,8.03
2022-09-23T04:24:03.555Z,8.02
2022-09-23T04:25:03.815Z,8.03
2022-09-23T04:26:03.535Z,8.03
2022-09-23T04:27:03.601Z,8.03
2022-09-23T04:28:03.532Z,8.02
2022-09-23T04:29:03.541Z,8.02
2022-09-23T04:30:03.493Z,8.02
2022-09-23T04:31:03.561Z,8.02
2022-09-23T04:32:05.809Z,7.99
2022-09-23T04:33:03.486Z,7.99
2022-09-23T04:34:03.462Z,7.99
2022-09-23T04:35:03.502Z,7.99
2022-09-23T04:36:03.425Z,7.99
2022-09-23T04:37:03.408Z,7.96
2022-09-23T04:38:03.411Z,7.96
2022-09-23T04:39:03.729Z,7.93
2022-09-23T04:40:03.494Z,7.93
2022-09-23T04:41:03.382Z,7.90
2022-09-23T04:42:03.390Z,7.87
2022-09-23T04:43:03.363Z,7.85
2022-09-23T04:44:03.365Z,7.84
2022-09-23T04:45:03.389Z,7.82
2022-09-23T04:46:03.592Z,7.81
2022-09-23T04:47:03.414Z,7.81
2022-09-23T04:48:03.304Z,7.81
2022-09-23T04:49:03.295Z,7.82
2022-09-23T04:50:03.295Z,7.81
2022-09-23T04:51:03.358Z,7.79
2022-09-23T04:52:03.265Z,7.79
2022-09-23T04:53:03.522Z,7.78
2022-09-23T04:54:03.279Z,7.78
2022-09-23T04:55:03.255Z,7.79
2022-09-23T04:56:03.218Z,7.75
2022-09-23T04:57:03.261Z,7.75
2022-09-23T04:58:03.214Z,7.74
2022-09-23T04:59:03.187Z,7.72
2022-09-23T05:00:03.501Z,7.72
2022-09-23T05:01:05.234Z,7.71
2022-09-23T05:02:03.238Z,7.69
2022-09-23T05:03:04.091Z,7.69
2022-09-23T05:04:03.155Z,7.69
2022-09-23T05:05:03.120Z,7.66
2022-09-23T05:06:03.122Z,7.62
2022-09-23T05:07:03.692Z,7.62
2022-09-23T05:08:03.143Z,7.60
2022-09-23T05:09:03.201Z,7.58
2022-09-23T05:10:03.072Z,7.58
2022-09-23T05:11:03.091Z,7.56
2022-09-23T05:12:03.046Z,7.55
2022-09-23T05:13:03.034Z,7.53
2022-09-23T05:14:03.318Z,7.52
2022-09-23T05:15:03.040Z,7.53
2022-09-23T05:16:03.030Z,7.50
2022-09-23T05:17:03.028Z,7.50
2022-09-23T05:18:03.015Z,7.52
2022-09-23T05:19:03.080Z,7.52
2022-09-23T05:20:02.968Z,7.52
2022-09-23T05:21:03.276Z,7.52
2022-09-23T05:22:02.943Z,7.50
2022-09-23T05:23:02.934Z,7.52
2022-09-23T05:24:02.933Z,7.53
2022-09-23T05:25:02.912Z,7.53
2022-09-23T05:26:02.925Z,7.53
2022-09-23T05:27:02.943Z,7.53
2022-09-23T05:28:03.180Z,7.55
2022-09-23T05:29:02.948Z,7.56
2022-09-23T05:30:02.870Z,7.55
2022-09-23T05:31:02.962Z,7.58
2022-09-23T05:32:02.907Z,7.58
2022-09-23T05:33:02.873Z,7.59
2022-09-23T05:34:02.859Z,7.59
2022-09-23T05:35:03.111Z,7.63
2022-09-23T05:36:02.806Z,7.66
2022-09-23T05:37:02.817Z,7.69
2022-09-23T05:38:02.791Z,7.74
2022-09-23T05:39:02.866Z,7.75
2022-09-23T05:40:02.759Z,7.79
2022-09-23T05:41:02.774Z,7.84
2022-09-23T05:42:03.041Z,7.87
2022-09-23T05:43:02.726Z,7.90
2022-09-23T05:44:02.729Z,7.92
2022-09-23T05:45:02.741Z,7.94
2022-09-23T05:46:07.205Z,7.96
2022-09-23T05:47:02.762Z,7.96
2022-09-23T05:48:02.688Z,7.99
2022-09-23T05:49:03.707Z,8.00
2022-09-23T05:50:02.698Z,8.00
2022-09-23T05:51:02.686Z,8.00
2022-09-23T05:52:02.631Z,8.02
2022-09-23T05:53:02.641Z,8.02
2022-09-23T05:54:02.615Z,8.00
2022-09-23T05:55:02.624Z,8.00
2022-09-23T05:57:04.895Z,8.07
2022-09-23T05:58:02.564Z,8.04
2022-09-23T05:59:02.708Z,8.10
2022-09-23T06:00:02.543Z,8.11
2022-09-23T06:01:02.553Z,8.12
2022-09-23T06:02:02.868Z,8.14
2022-09-23T06:03:02.611Z,8.17
2022-09-23T06:04:02.630Z,8.20
2022-09-23T06:05:02.507Z,8.20
2022-09-23T06:06:02.485Z,8.25
2022-09-23T06:07:03.657Z,8.29
2022-09-23T06:08:02.456Z,8.33
2022-09-23T06:09:02.866Z,8.39
2022-09-23T06:10:02.473Z,8.45
2022-09-23T06:11:02.436Z,8.47
2022-09-23T06:12:02.426Z,8.53
2022-09-23T06:13:02.457Z,8.58
2022-09-23T06:14:02.751Z,8.63
2022-09-23T06:15:02.455Z,8.66
2022-09-23T06:16:02.717Z,8.71
2022-09-23T06:17:02.365Z,8.76
2022-09-23T06:18:02.373Z,8.79
2022-09-23T06:19:05.416Z,8.81
2022-09-23T06:20:02.394Z,8.84
2022-09-23T06:21:02.388Z,8.88
2022-09-23T06:22:02.307Z,8.91
2022-09-23T06:23:03.886Z,8.93
2022-09-23T06:24:02.314Z,8.94
2022-09-23T06:25:02.292Z,8.99
2022-09-23T06:26:02.288Z,9.01
2022-09-23T06:27:02.341Z,9.05
2022-09-23T06:28:02.254Z,9.05
2022-09-23T06:29:03.065Z,9.10
2022-09-23T06:30:02.574Z,9.15
2022-09-23T06:31:02.289Z,9.18
2022-09-23T06:32:02.243Z,9.24
2022-09-23T06:33:02.259Z,9.25
2022-09-23T06:34:10.760Z,9.30
2022-09-23T06:35:02.185Z,9.32
2022-09-23T06:36:02.197Z,9.38
2022-09-23T06:37:13.049Z,9.40
2022-09-23T06:38:02.172Z,9.40
2022-09-23T06:39:02.231Z,9.42
2022-09-23T06:40:02.148Z,9.45
2022-09-23T06:41:02.132Z,9.48
2022-09-23T06:42:02.116Z,9.50
2022-09-23T06:43:02.104Z,9.57
2022-09-23T06:44:02.399Z,9.64
2022-09-23T06:45:02.097Z,9.71
2022-09-23T06:46:02.088Z,9.79
2022-09-23T06:47:02.160Z,9.88
2022-09-23T06:48:02.041Z,9.99
2022-09-23T06:49:02.064Z,10.06
2022-09-23T06:50:02.018Z,10.15
2022-09-23T06:51:02.380Z,10.26
2022-09-23T06:52:02.019Z,10.36
2022-09-23T06:53:02.005Z,10.43
2022-09-23T06:54:02.177Z,10.52
2022-09-23T06:55:01.963Z,10.60
2022-09-23T06:56:01.955Z,10.70
2022-09-23T06:57:01.974Z,10.78
2022-09-23T06:58:02.212Z,10.88
2022-09-23T06:59:01.937Z,10.98
2022-09-23T07:00:02.015Z,11.03
2022-09-23T07:01:01.909Z,11.11
2022-09-23T07:02:02.082Z,11.21
2022-09-23T07:03:02.056Z,11.31
2022-09-23T07:04:02.009Z,11.41
2022-09-23T07:05:02.149Z,11.53
2022-09-23T07:06:01.886Z,11.64
2022-09-23T07:07:01.896Z,11.75
2022-09-23T07:08:01.843Z,11.90
2022-09-23T07:09:01.906Z,12.02
2022-09-23T07:10:01.816Z,12.16
2022-09-23T07:11:01.798Z,12.29
2022-09-23T07:12:02.087Z,12.44
2022-09-23T07:13:01.784Z,12.56
2022-09-23T07:14:01.803Z,12.63
2022-09-23T07:15:01.807Z,12.71
2022-09-23T07:16:01.790Z,12.84
2022-09-23T07:17:01.742Z,12.96
2022-09-23T07:18:01.727Z,13.02
2022-09-23T07:19:02.046Z,13.14
2022-09-23T07:20:01.697Z,13.22
2022-09-23T07:21:01.719Z,13.38
2022-09-23T07:22:01.679Z,13.49
2022-09-23T07:23:01.668Z,13.52
2022-09-23T07:24:01.650Z,13.59
2022-09-23T07:25:01.704Z,13.71
2022-09-23T07:26:01.661Z,13.84
2022-09-23T07:27:01.674Z,13.96
2022-09-23T07:28:01.621Z,14.04
2022-09-23T07:29:01.609Z,14.14
2022-09-23T07:30:01.832Z,14.20
2022-09-23T07:31:01.655Z,14.31
2022-09-23T07:32:11.786Z,14.34
2022-09-23T07:33:03.799Z,14.34
2022-09-23T07:34:01.639Z,14.34
2022-09-23T07:35:01.562Z,14.39
2022-09-23T07:36:01.527Z,14.39
2022-09-23T07:37:01.532Z,14.37
2022-09-23T07:38:01.499Z,14.10
2022-09-23T07:39:01.549Z,13.91
2022-09-23T07:40:01.500Z,13.80
2022-09-23T07:41:01.503Z,13.81
2022-09-23T07:42:01.479Z,13.89
2022-09-23T07:43:01.490Z,14.10
2022-09-23T07:44:01.764Z,14.34
2022-09-23T07:45:01.462Z,14.52
2022-09-23T07:46:01.465Z,14.75
2022-09-23T07:47:01.436Z,15.06
2022-09-23T07:48:01.396Z,15.30
2022-09-23T07:49:01.470Z,15.38
2022-09-23T07:50:01.384Z,15.38
2022-09-23T07:51:01.410Z,15.46
2022-09-23T07:52:01.364Z,15.61
2022-09-23T07:53:01.363Z,15.76
2022-09-23T07:54:01.343Z,15.93
2022-09-23T07:55:01.377Z,15.96
2022-09-23T07:56:01.633Z,15.93
2022-09-23T07:57:01.352Z,15.94
2022-09-23T07:58:01.296Z,15.92
2022-09-23T07:59:01.286Z,15.89
2022-09-23T08:00:01.286Z,16.00
2022-09-23T08:01:01.290Z,16.11
2022-09-23T08:02:01.264Z,16.16
2022-09-23T08:03:01.670Z,16.33
2022-09-23T08:04:01.257Z,16.27
2022-09-23T08:05:01.239Z,16.23
2022-09-23T08:06:01.221Z,16.20
2022-09-23T08:07:01.231Z,15.94
2022-09-23T08:08:01.183Z,15.89
2022-09-23T08:09:01.328Z,16.03
2022-09-23T08:10:01.439Z,16.25
2022-09-23T08:11:01.149Z,16.49
2022-09-23T08:12:01.157Z,16.48
2022-09-23T08:13:01.156Z,16.42
2022-09-23T08:14:01.191Z,16.55
2022-09-23T08:15:01.354Z,16.83
2022-09-23T08:16:01.180Z,16.98
2022-09-23T08:17:01.384Z,17.03
2022-09-23T08:18:01.088Z,17.10
2022-09-23T08:19:01.299Z,17.10
2022-09-23T08:20:01.074Z,17.08
2022-09-23T08:21:01.219Z,17.07
2022-09-23T08:22:01.048Z,16.96
2022-09-23T08:23:01.101Z,16.98
2022-09-23T08:24:01.460Z,17.00
2022-09-23T08:25:01.015Z,17.10
2022-09-23T08:26:01.020Z,17.08
2022-09-23T08:27:01.037Z,17.00
2022-09-23T08:28:00.998Z,16.90
2022-09-23T08:29:00.997Z,16.81
2022-09-23T08:30:00.958Z,16.81
2022-09-23T08:31:01.365Z,16.85
2022-09-23T08:32:00.942Z,16.96
2022-09-23T08:33:00.978Z,16.98
2022-09-23T08:34:00.921Z,16.99
2022-09-23T08:35:00.923Z,16.83
2022-09-23T08:36:00.895Z,16.80
2022-09-23T08:37:00.900Z,16.85
2022-09-23T08:38:01.175Z,16.92
2022-09-23T08:39:00.900Z,17.00
2022-09-23T08:40:00.872Z,17.11
2022-09-23T08:41:00.872Z,17.26
2022-09-23T08:42:00.860Z,17.38
2022-09-23T08:43:00.837Z,17.44
2022-09-23T08:44:00.822Z,17.48
2022-09-23T08:45:01.117Z,17.47
2022-09-23T08:46:00.852Z,17.46
2022-09-23T08:47:00.838Z,17.46
2022-09-23T08:48:00.778Z,17.36
2022-09-23T08:49:00.813Z,17.23
2022-09-23T08:50:00.758Z,17.23
2022-09-23T08:51:00.786Z,17.10
2022-09-23T08:52:01.066Z,16.81
2022-09-23T08:53:00.726Z,16.55
2022-09-23T08:54:00.712Z,16.33
2022-09-23T08:55:00.720Z,16.20
2022-09-23T08:56:00.726Z,16.11
2022-09-23T08:57:00.720Z,16.14
2022-09-23T08:58:25.006Z,16.18
2022-09-23T08:59:00.666Z,16.14
2022-09-23T09:00:00.664Z,16.11
2022-09-23T09:01:00.690Z,16.15
2022-09-23T09:02:00.629Z,16.26
2022-09-23T09:03:00.680Z,16.37
2022-09-23T09:04:00.638Z,16.41
2022-09-23T09:05:00.884Z,16.40
2022-09-23T09:06:00.596Z,16.44
2022-09-23T09:07:24.487Z,16.45
2022-09-23T09:08:00.584Z,16.45
2022-09-23T09:09:00.676Z,16.48
2022-09-23T09:10:00.553Z,16.35
2022-09-23T09:11:00.559Z,16.11
2022-09-23T09:12:00.873Z,15.94
2022-09-23T09:13:00.515Z,15.99
2022-09-23T09:14:00.510Z,16.06
2022-09-23T09:15:00.552Z,16.12
2022-09-23T09:16:00.509Z,16.22
2022-09-23T09:17:01.350Z,16.33
2022-09-23T09:18:00.451Z,16.38
2022-09-23T09:19:00.747Z,16.42
2022-09-23T09:20:00.437Z,16.42
2022-09-23T09:21:00.474Z,16.30
2022-09-23T09:22:00.440Z,16.16
2022-09-23T09:23:00.411Z,16.22
2022-09-23T09:24:00.578Z,16.30
2022-09-23T09:25:00.381Z,16.37
2022-09-23T09:26:00.666Z,16.44
2022-09-23T09:27:00.401Z,16.55
2022-09-23T09:28:00.382Z,16.60
2022-09-23T09:29:16.834Z,16.53
2022-09-23T09:30:00.352Z,16.45
2022-09-23T09:31:00.380Z,16.25
2022-09-23T09:32:00.315Z,16.15
2022-09-23T09:33:00.605Z,16.14
2022-09-23T09:34:00.309Z,16.22
2022-09-23T09:35:00.315Z,16.27
2022-09-23T09:36:00.287Z,16.27
2022-09-23T09:37:04.679Z,16.33
2022-09-23T09:38:00.254Z,16.35
2022-09-23T09:39:00.422Z,16.42
2022-09-23T09:40:00.217Z,16.50
2022-09-23T09:41:00.233Z,16.55
2022-09-23T09:42:00.201Z,16.62
2022-09-23T09:43:00.236Z,16.74
2022-09-23T09:44:00.218Z,16.81
2022-09-23T09:45:00.480Z,16.86
2022-09-23T09:46:00.175Z,16.88
2022-09-23T09:47:00.309Z,16.93
2022-09-23T09:48:00.153Z,16.85
2022-09-23T09:49:00.237Z,16.80
2022-09-23T09:50:00.122Z,16.81
2022-09-23T09:51:00.144Z,16.89
2022-09-23T09:52:00.122Z,16.96
2022-09-23T09:53:00.044Z,16.96
2022-09-23T09:54:00.035Z,17.03
2022-09-23T09:55:00.048Z,17.00
2022-09-23T09:56:04.557Z,17.00
2022-09-23T09:57:00.043Z,17.06
2022-09-23T09:58:00.050Z,17.11
2022-09-23T09:59:00.018Z,17.17
2022-09-23T09:59:59.954Z,17.25
2022-09-23T10:00:59.972Z,17.28
2022-09-23T10:01:59.941Z,17.28
2022-09-23T10:03:00.258Z,17.25
2022-09-23T10:03:59.907Z,17.26
2022-09-23T10:04:59.906Z,17.30
2022-09-23T10:05:59.883Z,17.20
2022-09-23T10:06:59.879Z,17.25
2022-09-23T10:07:59.872Z,17.32
2022-09-23T10:08:59.929Z,17.41
2022-09-23T10:10:06.067Z,17.50
2022-09-23T10:10:59.881Z,17.54
2022-09-23T10:11:59.817Z,17.63
2022-09-23T10:12:59.818Z,17.69
2022-09-23T10:13:59.815Z,17.69
2022-09-23T10:14:59.828Z,17.62
2022-09-23T10:15:59.777Z,17.73
2022-09-23T10:17:00.210Z,17.76
2022-09-23T10:17:59.768Z,17.81
2022-09-23T10:18:59.819Z,17.84
2022-09-23T10:19:59.732Z,17.73
2022-09-23T10:20:59.929Z,17.69
2022-09-23T10:21:59.728Z,17.55
2022-09-23T10:22:59.695Z,17.46
2022-09-23T10:24:00.072Z,17.47
2022-09-23T10:24:59.677Z,17.47
2022-09-23T10:25:59.668Z,17.54
2022-09-23T10:26:59.734Z,17.62
2022-09-23T10:27:59.722Z,17.63
2022-09-23T10:28:59.659Z,17.54
2022-09-23T10:29:59.645Z,17.59
2022-09-23T10:31:00.133Z,17.64
2022-09-23T10:31:59.683Z,17.69
2022-09-23T10:32:59.633Z,17.74
2022-09-23T10:33:59.608Z,17.71
2022-09-23T10:34:59.652Z,17.70
2022-09-23T10:35:59.583Z,17.71
2022-09-23T10:36:59.555Z,17.62
2022-09-23T10:38:00.254Z,17.59
2022-09-23T10:38:59.619Z,17.51
2022-09-23T10:39:59.529Z,17.46
2022-09-23T10:40:59.655Z,17.36
2022-09-23T10:41:59.703Z,17.38
2022-09-23T10:42:59.489Z,17.46
2022-09-23T10:43:59.659Z,17.46
2022-09-23T10:44:59.837Z,17.50
2022-09-23T10:45:59.565Z,17.54
2022-09-23T10:46:59.468Z,17.66
2022-09-23T10:47:59.569Z,17.73
2022-09-23T10:48:59.436Z,17.71
2022-09-23T10:49:59.434Z,17.59
2022-09-23T10:50:59.617Z,17.50
2022-09-23T10:51:59.687Z,17.35
2022-09-23T10:52:59.392Z,17.30
2022-09-23T10:53:59.529Z,17.35
2022-09-23T10:54:59.375Z,17.41
2022-09-23T10:55:59.367Z,17.48
2022-09-23T10:57:06.060Z,17.55
2022-09-23T10:57:59.436Z,17.67
2022-09-23T10:58:59.630Z,17.55
2022-09-23T10:59:59.333Z,17.64
2022-09-23T11:00:59.366Z,17.73
2022-09-23T11:01:59.315Z,17.87
2022-09-23T11:02:59.341Z,17.94
2022-09-23T11:03:59.366Z,17.81
2022-09-23T11:04:59.370Z,17.59
2022-09-23T11:05:59.721Z,17.44
2022-09-23T11:06:59.250Z,17.48
2022-09-23T11:07:59.269Z,17.59
2022-09-23T11:08:59.768Z,17.73
2022-09-23T11:09:59.257Z,17.76
2022-09-23T11:10:59.230Z,17.69
2022-09-23T11:11:59.206Z,17.50
2022-09-23T11:12:59.582Z,17.46
2022-09-23T11:13:59.201Z,17.29
2022-09-23T11:14:59.239Z,17.15
2022-09-23T11:15:59.170Z,17.10
2022-09-23T11:16:59.264Z,17.20
2022-09-23T11:17:59.157Z,17.28
2022-09-23T11:18:59.165Z,17.33
2022-09-23T11:19:59.444Z,17.43
2022-09-23T11:20:59.173Z,17.54
2022-09-23T11:21:59.115Z,17.67
2022-09-23T11:22:59.105Z,17.82
2022-09-23T11:23:59.092Z,17.95
2022-09-23T11:24:59.090Z,18.04
2022-09-23T11:25:59.075Z,18.15
2022-09-23T11:26:59.441Z,18.28
2022-09-23T11:27:59.048Z,18.36
2022-09-23T11:28:59.201Z,18.43
2022-09-23T11:29:59.048Z,18.44
2022-09-23T11:30:59.139Z,18.49
2022-09-23T11:31:59.798Z,18.49
2022-09-23T11:32:59.120Z,18.58
2022-09-23T11:33:59.021Z,18.64
2022-09-23T11:34:59.285Z,18.62
2022-09-23T11:35:58.983Z,18.77
2022-09-23T11:36:58.967Z,18.98
2022-09-23T11:37:58.961Z,18.86
2022-09-23T11:38:58.991Z,18.82
2022-09-23T11:39:58.938Z,18.91
2022-09-23T11:40:59.027Z,18.84
2022-09-23T11:41:59.226Z,18.80
2022-09-23T11:42:58.885Z,18.87
2022-09-23T11:43:58.890Z,19.05
2022-09-23T11:44:58.913Z,19.13
2022-09-23T11:45:58.994Z,18.98
2022-09-23T11:46:58.850Z,18.94
2022-09-23T11:47:58.864Z,18.99
2022-09-23T11:48:59.116Z,19.15
2022-09-23T11:49:58.818Z,19.36
2022-09-23T11:50:58.870Z,19.39
2022-09-23T11:51:58.812Z,19.53
2022-09-23T11:52:58.796Z,19.73
2022-09-23T11:53:58.794Z,19.75
2022-09-23T11:54:58.948Z,19.88
2022-09-23T11:55:59.052Z,20.10
2022-09-23T11:56:58.806Z,20.34
2022-09-23T11:57:58.746Z,20.51
2022-09-23T11:58:59.888Z,20.43
2022-09-23T11:59:58.759Z,20.54
2022-09-23T12:01:01.093Z,20.71
2022-09-23T12:02:02.714Z,20.71
2022-09-23T12:03:04.766Z,20.66
2022-09-23T12:04:01.104Z,20.68
2022-09-23T12:04:58.951Z,20.46
2022-09-23T12:05:58.834Z,20.21
2022-09-23T12:06:58.650Z,20.06
2022-09-23T12:07:58.649Z,20.08
2022-09-23T12:08:58.995Z,20.15
2022-09-23T12:09:58.931Z,20.05
2022-09-23T12:10:58.635Z,19.94
2022-09-23T12:11:58.613Z,19.73
2022-09-23T12:12:58.620Z,19.51
2022-09-23T12:13:58.575Z,19.32
2022-09-23T12:14:58.593Z,19.29
2022-09-23T12:15:58.872Z,19.33
2022-09-23T12:16:58.598Z,19.35
2022-09-23T12:17:58.556Z,19.25
2022-09-23T12:18:58.543Z,19.21
2022-09-23T12:19:58.517Z,19.23
2022-09-23T12:20:58.532Z,19.29
2022-09-23T12:21:58.546Z,19.35
2022-09-23T12:22:58.511Z,19.32
2022-09-23T12:23:58.481Z,19.32
2022-09-23T12:24:58.467Z,19.33
2022-09-23T12:25:58.464Z,19.31
2022-09-23T12:26:58.518Z,19.25
2022-09-23T12:27:58.478Z,19.24
2022-09-23T12:28:58.769Z,19.25
2022-09-23T12:29:58.426Z,19.20
2022-09-23T12:30:58.523Z,19.10
2022-09-23T12:31:58.413Z,19.13
2022-09-23T12:32:58.437Z,19.13
2022-09-23T12:33:58.385Z,19.18
2022-09-23T12:34:58.371Z,19.28
2022-09-23T12:35:58.363Z,19.28
2022-09-23T12:36:58.338Z,19.23
2022-09-23T12:37:58.360Z,19.25
2022-09-23T12:38:58.390Z,19.29
2022-09-23T12:39:58.315Z,19.29
2022-09-23T12:40:58.574Z,19.17
2022-09-23T12:41:58.305Z,19.06
2022-09-23T12:42:58.277Z,18.91
2022-09-23T12:43:58.278Z,18.83
2022-09-23T12:44:58.311Z,18.86
2022-09-23T12:45:58.301Z,18.82
2022-09-23T12:46:58.239Z,18.79
2022-09-23T12:47:58.282Z,18.86
2022-09-23T12:48:58.306Z,18.97
2022-09-23T12:49:58.222Z,18.92
2022-09-23T12:50:58.226Z,18.79
2022-09-23T12:51:58.206Z,18.70
2022-09-23T12:52:58.473Z,18.74
2022-09-23T12:53:58.182Z,18.72
2022-09-23T12:54:58.180Z,18.68
2022-09-23T12:55:58.165Z,18.73
2022-09-23T12:56:58.180Z,18.76
2022-09-23T12:57:58.180Z,18.80
2022-09-23T12:58:58.123Z,18.82
2022-09-23T12:59:58.427Z,18.80
2022-09-23T13:00:58.204Z,18.76
2022-09-23T13:01:58.256Z,18.83
2022-09-23T13:02:58.117Z,18.84
2022-09-23T13:03:58.101Z,18.90
2022-09-23T13:04:58.076Z,18.94
2022-09-23T13:05:58.050Z,18.91